BAW53M EGLL-MYNN
Flight info
| Callsign | BAW53M |
|---|---|
| Flight time | N/A |
| Altitude | 36000 |
| Route | CPT L9 BUCGO DCT FELCA DCT NICXI DCT BAKUR DCT ABAGU DCT TIPUR DCT NEBIN/M084F360 DCT 54N020W 54N030W 53N040W 51N050W DCT ALLRY/N0491F360 DCT 50N054W/N0490F380 DCT LOPRO/N0483F400 DCT YYG DCT CAAPE DCT ALLEX DCT CELTK DCT SARDI DCT YAZUU Q167 ZIZZI DCT ZJAAY DCT KALDA DCT BGBRD Q101 SKARP DCT IDOLS DCT RROOO Y323 CARPX AR3 CASPR Y307 NUCAR AR3 KURAY |
| Aircraft | B772/H-SDE1E3FGHIJ3J5J6M1M2P2RWXYZ/LB1D1 |
Departure
| Time | N/A |
|---|---|
| Airport | London Heathrow Airport (EGLL) |
Arrival
| Time | 2026-05-05 22:24 |
|---|---|
| Airport | Lynden Pindling International Airport (MYNN) |
| Time | Latitude | Longitude | Altitude | Speed | Heading |
|---|---|---|---|---|---|
| 2026-05-05 21:52 | 28.30710 | -77.64097 | 40059 ft | 527 kts | 186° |
| 2026-05-05 21:52 | 28.27084 | -77.63938 | 40068 ft | 527 kts | 186° |
| 2026-05-05 21:53 | 28.19750 | -77.63616 | 40070 ft | 527 kts | 186° |
| 2026-05-05 21:53 | 28.12409 | -77.63292 | 40065 ft | 528 kts | 186° |
| 2026-05-05 21:54 | 28.05057 | -77.62902 | 40059 ft | 529 kts | 185° |
| 2026-05-05 21:54 | 27.97743 | -77.62482 | 40056 ft | 530 kts | 185° |
| 2026-05-05 21:55 | 27.90366 | -77.62062 | 40061 ft | 531 kts | 185° |
| 2026-05-05 21:55 | 27.82981 | -77.61646 | 40060 ft | 531 kts | 185° |
| 2026-05-05 21:56 | 27.75576 | -77.61234 | 40058 ft | 532 kts | 185° |
| 2026-05-05 21:56 | 27.68218 | -77.60829 | 40056 ft | 532 kts | 185° |
| 2026-05-05 21:57 | 27.60798 | -77.60425 | 40052 ft | 533 kts | 185° |
| 2026-05-05 21:57 | 27.53440 | -77.60020 | 40029 ft | 517 kts | 185° |
| 2026-05-05 21:58 | 27.46415 | -77.59591 | 39790 ft | 502 kts | 185° |
| 2026-05-05 21:58 | 27.42954 | -77.59370 | 39525 ft | 494 kts | 185° |
| 2026-05-05 21:58 | 27.39548 | -77.59144 | 39266 ft | 486 kts | 185° |
| 2026-05-05 21:58 | 27.36188 | -77.58913 | 39007 ft | 479 kts | 185° |
| 2026-05-05 21:59 | 27.32873 | -77.58680 | 38620 ft | 476 kts | 185° |
| 2026-05-05 21:59 | 27.29575 | -77.58449 | 38098 ft | 474 kts | 185° |
| 2026-05-05 21:59 | 27.26320 | -77.58227 | 37632 ft | 471 kts | 185° |
| 2026-05-05 21:59 | 27.23054 | -77.58012 | 37168 ft | 469 kts | 185° |
| 2026-05-05 22:00 | 27.19811 | -77.57807 | 36713 ft | 466 kts | 185° |
| 2026-05-05 22:00 | 27.16574 | -77.57613 | 36256 ft | 464 kts | 185° |
| 2026-05-05 22:00 | 27.13351 | -77.57430 | 35812 ft | 461 kts | 185° |
| 2026-05-05 22:00 | 27.10135 | -77.57262 | 35278 ft | 461 kts | 185° |
| 2026-05-05 22:01 | 27.06969 | -77.57114 | 34774 ft | 461 kts | 185° |
| 2026-05-05 22:01 | 27.03764 | -77.56979 | 34271 ft | 460 kts | 185° |
| 2026-05-05 22:01 | 27.00564 | -77.56862 | 33746 ft | 459 kts | 185° |
| 2026-05-05 22:01 | 26.97368 | -77.56746 | 33183 ft | 459 kts | 184° |
| 2026-05-05 22:02 | 26.94171 | -77.56500 | 32632 ft | 460 kts | 181° |
| 2026-05-05 22:02 | 26.90981 | -77.56187 | 32089 ft | 459 kts | 181° |
| 2026-05-05 22:02 | 26.87808 | -77.55882 | 31574 ft | 457 kts | 182° |
| 2026-05-05 22:02 | 26.84638 | -77.55610 | 31040 ft | 455 kts | 182° |
| 2026-05-05 22:03 | 26.81492 | -77.55374 | 30533 ft | 452 kts | 183° |
| 2026-05-05 22:03 | 26.78401 | -77.55167 | 30024 ft | 449 kts | 183° |
| 2026-05-05 22:03 | 26.75285 | -77.54973 | 29438 ft | 447 kts | 183° |
| 2026-05-05 22:03 | 26.72190 | -77.54788 | 28865 ft | 444 kts | 183° |
| 2026-05-05 22:04 | 26.69109 | -77.54606 | 28298 ft | 442 kts | 183° |
| 2026-05-05 22:04 | 26.66039 | -77.54425 | 27735 ft | 440 kts | 183° |
| 2026-05-05 22:04 | 26.62979 | -77.54244 | 27195 ft | 438 kts | 183° |
| 2026-05-05 22:04 | 26.59940 | -77.54063 | 26664 ft | 436 kts | 183° |
| 2026-05-05 22:05 | 26.56920 | -77.53882 | 26138 ft | 434 kts | 183° |
| 2026-05-05 22:05 | 26.53912 | -77.53702 | 25621 ft | 432 kts | 183° |
| 2026-05-05 22:05 | 26.50919 | -77.53522 | 25117 ft | 430 kts | 183° |
| 2026-05-05 22:05 | 26.47932 | -77.53343 | 24619 ft | 428 kts | 182° |
| 2026-05-05 22:06 | 26.45007 | -77.53168 | 24135 ft | 426 kts | 182° |
| 2026-05-05 22:06 | 26.42053 | -77.52991 | 23652 ft | 424 kts | 182° |
| 2026-05-05 22:06 | 26.39116 | -77.52815 | 23099 ft | 422 kts | 182° |
| 2026-05-05 22:06 | 26.36190 | -77.52640 | 22527 ft | 419 kts | 182° |
| 2026-05-05 22:07 | 26.33281 | -77.52466 | 21984 ft | 417 kts | 182° |
| 2026-05-05 22:07 | 26.30388 | -77.52293 | 21447 ft | 420 kts | 182° |
| 2026-05-05 22:07 | 26.28389 | -77.52178 | 21137 ft | 426 kts | 182° |
| 2026-05-05 22:07 | 26.25483 | -77.52005 | 20694 ft | 420 kts | 181° |
| 2026-05-05 22:08 | 26.22581 | -77.51829 | 20255 ft | 414 kts | 181° |
| 2026-05-05 22:08 | 26.19722 | -77.51655 | 19831 ft | 408 kts | 181° |
| 2026-05-05 22:08 | 26.16900 | -77.51485 | 19412 ft | 403 kts | 181° |
| 2026-05-05 22:08 | 26.14115 | -77.51318 | 18989 ft | 399 kts | 181° |
| 2026-05-05 22:09 | 26.11351 | -77.51154 | 18556 ft | 395 kts | 181° |
| 2026-05-05 22:09 | 26.08610 | -77.50991 | 18110 ft | 392 kts | 181° |
| 2026-05-05 22:09 | 26.05934 | -77.50831 | 17661 ft | 388 kts | 181° |
| 2026-05-05 22:09 | 26.03221 | -77.50670 | 17217 ft | 383 kts | 181° |
| 2026-05-05 22:10 | 26.00573 | -77.50512 | 16787 ft | 379 kts | 181° |
| 2026-05-05 22:10 | 25.97957 | -77.50356 | 16369 ft | 375 kts | 181° |
| 2026-05-05 22:10 | 25.95398 | -77.50204 | 15952 ft | 371 kts | 181° |
| 2026-05-05 22:10 | 25.92824 | -77.50051 | 15539 ft | 367 kts | 181° |
| 2026-05-05 22:11 | 25.90284 | -77.49900 | 15129 ft | 364 kts | 181° |
| 2026-05-05 22:11 | 25.87758 | -77.49751 | 14712 ft | 360 kts | 181° |
| 2026-05-05 22:11 | 25.85267 | -77.49603 | 14320 ft | 357 kts | 181° |
| 2026-05-05 22:11 | 25.82800 | -77.49457 | 13916 ft | 354 kts | 181° |
| 2026-05-05 22:12 | 25.80379 | -77.49313 | 13463 ft | 351 kts | 181° |
| 2026-05-05 22:12 | 25.77953 | -77.49169 | 13060 ft | 347 kts | 181° |
| 2026-05-05 22:12 | 25.75556 | -77.49027 | 12656 ft | 342 kts | 181° |
| 2026-05-05 22:12 | 25.73192 | -77.48887 | 12271 ft | 338 kts | 181° |
| 2026-05-05 22:13 | 25.70856 | -77.48748 | 11883 ft | 334 kts | 181° |
| 2026-05-05 22:13 | 25.68544 | -77.48611 | 11512 ft | 330 kts | 181° |
| 2026-05-05 22:13 | 25.66278 | -77.48520 | 11130 ft | 319 kts | 187° |
| 2026-05-05 22:13 | 25.64143 | -77.48961 | 10776 ft | 307 kts | 200° |
| 2026-05-05 22:14 | 25.62136 | -77.49606 | 10509 ft | 301 kts | 200° |
| 2026-05-05 22:14 | 25.60151 | -77.50239 | 10339 ft | 292 kts | 200° |
| 2026-05-05 22:14 | 25.58218 | -77.50851 | 10137 ft | 285 kts | 200° |
| 2026-05-05 22:14 | 25.56316 | -77.51450 | 9826 ft | 283 kts | 200° |
| 2026-05-05 22:15 | 25.54426 | -77.52042 | 9438 ft | 283 kts | 200° |
| 2026-05-05 22:15 | 25.52530 | -77.52634 | 9073 ft | 282 kts | 200° |
| 2026-05-05 22:15 | 25.50644 | -77.53219 | 8730 ft | 281 kts | 199° |
| 2026-05-05 22:15 | 25.48791 | -77.53792 | 8369 ft | 275 kts | 199° |
| 2026-05-05 22:16 | 25.46960 | -77.54356 | 7684 ft | 273 kts | 199° |
| 2026-05-05 22:16 | 25.45117 | -77.54925 | 6930 ft | 275 kts | 198° |
| 2026-05-05 22:16 | 25.43273 | -77.55494 | 6229 ft | 274 kts | 198° |
| 2026-05-05 22:16 | 25.41437 | -77.56059 | 5584 ft | 276 kts | 197° |
| 2026-05-05 22:17 | 25.39581 | -77.56630 | 5265 ft | 275 kts | 197° |
| 2026-05-05 22:17 | 25.37756 | -77.57190 | 5023 ft | 270 kts | 197° |
| 2026-05-05 22:17 | 25.35950 | -77.57745 | 4740 ft | 268 kts | 197° |
| 2026-05-05 22:17 | 25.34152 | -77.58297 | 4409 ft | 268 kts | 197° |
| 2026-05-05 22:18 | 25.32354 | -77.58849 | 4098 ft | 267 kts | 197° |
| 2026-05-05 22:18 | 25.30586 | -77.59391 | 3809 ft | 266 kts | 197° |
| 2026-05-05 22:18 | 25.28783 | -77.59945 | 3510 ft | 264 kts | 197° |
| 2026-05-05 22:18 | 25.27035 | -77.60481 | 3231 ft | 263 kts | 197° |
| 2026-05-05 22:19 | 25.25282 | -77.61018 | 2996 ft | 260 kts | 197° |
| 2026-05-05 22:19 | 25.23552 | -77.61549 | 2759 ft | 256 kts | 197° |
| 2026-05-05 22:19 | 25.21843 | -77.62072 | 2536 ft | 252 kts | 197° |
| 2026-05-05 22:19 | 25.20165 | -77.62487 | 2364 ft | 242 kts | 182° |
| 2026-05-05 22:20 | 25.18561 | -77.62061 | 2214 ft | 237 kts | 149° |
| 2026-05-05 22:20 | 25.17289 | -77.60978 | 2117 ft | 226 kts | 140° |
| 2026-05-05 22:20 | 25.16161 | -77.59821 | 2046 ft | 216 kts | 136° |
| 2026-05-05 22:20 | 25.15149 | -77.58695 | 2041 ft | 201 kts | 135° |
| 2026-05-05 22:21 | 25.14212 | -77.57643 | 2025 ft | 183 kts | 135° |
| 2026-05-05 22:21 | 25.13366 | -77.56695 | 1991 ft | 166 kts | 135° |
| 2026-05-05 22:21 | 25.12567 | -77.55802 | 2000 ft | 161 kts | 135° |
| 2026-05-05 22:21 | 25.11763 | -77.54906 | 1853 ft | 168 kts | 135° |
| 2026-05-05 22:22 | 25.10953 | -77.54001 | 1633 ft | 163 kts | 135° |
| 2026-05-05 22:22 | 25.10166 | -77.53122 | 1423 ft | 155 kts | 135° |
| 2026-05-05 22:22 | 25.09432 | -77.52302 | 1236 ft | 145 kts | 135° |
| 2026-05-05 22:22 | 25.08736 | -77.51524 | 1056 ft | 145 kts | 135° |
| 2026-05-05 22:23 | 25.08023 | -77.50728 | 854 ft | 145 kts | 136° |
| 2026-05-05 22:23 | 25.07320 | -77.49945 | 673 ft | 143 kts | 137° |
| 2026-05-05 22:23 | 25.06630 | -77.49184 | 473 ft | 140 kts | 136° |
| 2026-05-05 22:23 | 25.05944 | -77.48402 | 299 ft | 142 kts | 139° |
| 2026-05-05 22:24 | 25.05263 | -77.47653 | 95 ft | 135 kts | 137° |
| 2026-05-05 22:24 | 25.04617 | -77.46943 | 26 ft | 120 kts | 134° |
| 2026-05-05 22:24 | 25.04156 | -77.46430 | 25 ft | 68 kts | 134° |
| 2026-05-05 22:24 | 25.03918 | -77.46165 | 27 ft | 41 kts | 135° |
| 2026-05-05 22:25 | 25.03789 | -77.46022 | 28 ft | 12 kts | 135° |
| 2026-05-05 22:25 | 25.03745 | -77.45971 | 29 ft | 6 kts | 122° |
| 2026-05-05 22:25 | 25.03755 | -77.45942 | 26 ft | 4 kts | 42° |
| 2026-05-05 22:25 | 25.03779 | -77.45919 | 26 ft | 5 kts | 43° |
| 2026-05-05 22:26 | 25.03810 | -77.45887 | 27 ft | 7 kts | 43° |
| 2026-05-05 22:26 | 25.03853 | -77.45853 | 23 ft | 8 kts | 7° |
| 2026-05-05 22:26 | 25.03901 | -77.45890 | 22 ft | 9 kts | 314° |
| 2026-05-05 22:26 | 25.03943 | -77.45937 | 26 ft | 9 kts | 315° |
| 2026-05-05 22:27 | 25.03985 | -77.45983 | 27 ft | 9 kts | 315° |
| 2026-05-05 22:27 | 25.04027 | -77.46030 | 25 ft | 9 kts | 315° |
| 2026-05-05 22:27 | 25.04069 | -77.46077 | 25 ft | 9 kts | 314° |
| 2026-05-05 22:27 | 25.04111 | -77.46124 | 25 ft | 9 kts | 314° |
| 2026-05-05 22:28 | 25.04154 | -77.46172 | 24 ft | 9 kts | 314° |
| 2026-05-05 22:28 | 25.04196 | -77.46219 | 25 ft | 9 kts | 315° |
| 2026-05-05 22:28 | 25.04272 | -77.46303 | 25 ft | 21 kts | 315° |
| 2026-05-05 22:28 | 25.04385 | -77.46427 | 24 ft | 23 kts | 315° |
| 2026-05-05 22:29 | 25.04500 | -77.46555 | 26 ft | 23 kts | 315° |
| 2026-05-05 22:29 | 25.04614 | -77.46683 | 25 ft | 23 kts | 315° |
| 2026-05-05 22:29 | 25.04731 | -77.46808 | 23 ft | 23 kts | 316° |
| 2026-05-05 22:29 | 25.04828 | -77.46917 | 25 ft | 16 kts | 314° |
| 2026-05-05 22:30 | 25.04881 | -77.46963 | 25 ft | 6 kts | 356° |
| 2026-05-05 22:30 | 25.04913 | -77.46929 | 26 ft | 6 kts | 60° |
| 2026-05-05 22:30 | 25.04930 | -77.46891 | 24 ft | 5 kts | 66° |
| 2026-05-05 22:30 | 25.04913 | -77.46860 | 23 ft | 5 kts | 141° |
| 2026-05-05 22:31 | 25.04887 | -77.46841 | 23 ft | 4 kts | 147° |
| 2026-05-05 22:31 | 25.04872 | -77.46830 | 25 ft | 1 kts | 147° |
| 2026-05-05 22:31 | 25.04868 | -77.46827 | 25 ft | 1 kts | 147° |
| 2026-05-05 22:31 | 25.04866 | -77.46826 | 25 ft | 0 kts | 147° |